createdAt,value
2023-10-26T00:00:55.510Z,9.95
2023-10-26T00:06:09.938Z,9.96
2023-10-26T00:11:12.880Z,10.00
2023-10-26T00:16:15.885Z,10.00
2023-10-26T00:21:18.977Z,10.01
2023-10-26T00:26:22.123Z,10.02
2023-10-26T00:31:25.101Z,10.02
2023-10-26T00:36:28.227Z,10.09
2023-10-26T00:41:32.143Z,10.08
2023-10-26T00:46:36.531Z,10.11
2023-10-26T00:51:40.292Z,10.16
2023-10-26T00:56:43.291Z,10.16
2023-10-26T01:01:47.241Z,10.16
2023-10-26T01:06:50.139Z,10.16
2023-10-26T01:11:53.260Z,10.12
2023-10-26T01:16:56.347Z,10.09
2023-10-26T01:21:59.360Z,9.99
2023-10-26T01:27:02.502Z,9.96
2023-10-26T01:32:05.713Z,9.95
2023-10-26T01:37:08.694Z,9.88
2023-10-26T01:42:13.401Z,9.76
2023-10-26T01:47:18.553Z,9.69
2023-10-26T01:52:21.661Z,9.64
2023-10-26T01:57:24.519Z,9.59
2023-10-26T02:02:27.446Z,9.53
2023-10-26T02:07:30.464Z,9.47
2023-10-26T02:12:33.353Z,9.47
2023-10-26T02:17:36.252Z,9.49
2023-10-26T02:22:39.207Z,9.51
2023-10-26T02:27:42.184Z,9.50
2023-10-26T02:32:45.163Z,9.47
2023-10-26T02:37:49.149Z,9.47
2023-10-26T02:42:52.185Z,9.47
2023-10-26T02:47:55.138Z,9.45
2023-10-26T02:52:58.543Z,9.38
2023-10-26T02:58:01.467Z,9.32
2023-10-26T03:03:04.505Z,9.23
2023-10-26T03:08:09.729Z,9.17
2023-10-26T03:13:13.089Z,9.10
2023-10-26T03:18:16.329Z,9.02
2023-10-26T03:23:19.904Z,8.90
2023-10-26T03:28:22.965Z,8.78
2023-10-26T03:33:25.862Z,8.61
2023-10-26T03:38:28.955Z,8.45
2023-10-26T03:43:32.164Z,8.33
2023-10-26T03:48:36.637Z,8.19
2023-10-26T03:53:39.702Z,8.06
2023-10-26T03:58:42.625Z,7.93
2023-10-26T04:03:45.702Z,7.80
2023-10-26T04:08:50.003Z,7.68
2023-10-26T04:13:55.470Z,7.59
2023-10-26T04:18:58.417Z,7.50
2023-10-26T04:24:01.750Z,7.39
2023-10-26T04:29:08.113Z,7.29
2023-10-26T04:34:11.171Z,7.28
2023-10-26T04:39:14.768Z,7.27
2023-10-26T04:44:19.587Z,7.24
2023-10-26T04:49:22.499Z,7.21
2023-10-26T04:54:25.486Z,7.20
2023-10-26T04:59:28.349Z,7.22
2023-10-26T05:04:31.269Z,7.27
2023-10-26T05:09:34.279Z,7.35
2023-10-26T05:14:37.179Z,7.49
2023-10-26T05:19:40.171Z,7.64
2023-10-26T05:24:43.776Z,7.79
2023-10-26T05:29:46.939Z,7.92
2023-10-26T05:34:49.887Z,8.04
2023-10-26T05:39:52.754Z,8.14
2023-10-26T05:44:57.655Z,8.28
2023-10-26T05:50:01.328Z,8.41
2023-10-26T05:55:04.752Z,8.50
2023-10-26T06:00:11.006Z,8.57
2023-10-26T06:05:14.055Z,8.64
2023-10-26T06:10:17.062Z,8.71
2023-10-26T06:15:20.101Z,8.75
2023-10-26T06:20:28.973Z,8.82
2023-10-26T06:25:39.953Z,8.91
2023-10-26T06:30:43.001Z,9.01
2023-10-26T06:35:45.979Z,9.10
2023-10-26T06:40:49.052Z,9.20
2023-10-26T06:45:52.230Z,9.33
2023-10-26T06:51:03.067Z,9.44
2023-10-26T06:56:13.176Z,9.57
2023-10-26T07:01:19.785Z,9.67
2023-10-26T07:06:27.390Z,9.75
2023-10-26T07:11:33.462Z,9.81
2023-10-26T07:16:36.447Z,9.88
2023-10-26T07:21:39.358Z,9.94
2023-10-26T07:26:42.291Z,9.97
2023-10-26T07:31:46.895Z,10.00
2023-10-26T07:36:50.874Z,10.07
2023-10-26T07:42:07.424Z,10.17
2023-10-26T07:47:16.314Z,10.28
2023-10-26T07:52:19.205Z,10.37
2023-10-26T07:57:24.416Z,10.48
2023-10-26T08:02:27.699Z,10.58
2023-10-26T08:07:31.754Z,10.65
2023-10-26T08:12:34.779Z,10.73
2023-10-26T08:17:37.827Z,10.88
2023-10-26T08:22:42.935Z,11.00
2023-10-26T08:27:46.741Z,11.10
2023-10-26T08:32:51.430Z,11.17
2023-10-26T08:37:54.847Z,11.20
2023-10-26T08:42:57.816Z,11.19
2023-10-26T08:48:00.725Z,11.21
2023-10-26T08:53:04.026Z,11.23
2023-10-26T08:58:07.005Z,11.22
2023-10-26T09:03:10.921Z,11.19
2023-10-26T09:08:18.663Z,11.19
2023-10-26T09:13:29.437Z,11.26
2023-10-26T09:18:35.145Z,11.37
2023-10-26T09:23:39.149Z,11.40
2023-10-26T09:28:55.857Z,11.38
2023-10-26T09:34:11.246Z,11.37
2023-10-26T09:39:14.452Z,11.31
2023-10-26T09:44:17.357Z,11.24
2023-10-26T09:49:21.799Z,11.15
2023-10-26T09:54:37.862Z,11.10
2023-10-26T09:59:40.906Z,10.97
2023-10-26T10:04:44.945Z,10.92
2023-10-26T10:10:14.945Z,10.98
2023-10-26T10:15:41.888Z,11.06
2023-10-26T10:20:47.518Z,11.09
2023-10-26T10:25:52.767Z,11.12
2023-10-26T10:30:58.224Z,11.19
2023-10-26T10:36:03.783Z,11.26
2023-10-26T10:41:13.985Z,11.41
2023-10-26T10:46:27.558Z,11.66
2023-10-26T10:51:39.313Z,11.74
2023-10-26T10:56:49.784Z,11.74
2023-10-26T11:02:13.268Z,11.68
2023-10-26T11:07:16.297Z,11.67
2023-10-26T11:12:19.233Z,11.63
2023-10-26T11:17:26.358Z,11.61
2023-10-26T11:22:29.838Z,11.64
2023-10-26T11:27:38.746Z,11.68
2023-10-26T11:32:43.116Z,11.75
2023-10-26T11:37:56.725Z,11.84
2023-10-26T11:43:01.126Z,11.92
2023-10-26T11:48:09.681Z,11.94
2023-10-26T11:53:12.916Z,11.94
2023-10-26T11:58:16.070Z,11.89
2023-10-26T12:03:19.136Z,11.83
2023-10-26T12:08:22.318Z,11.79
2023-10-26T12:13:25.265Z,11.74
2023-10-26T12:18:28.623Z,11.68
2023-10-26T12:23:32.300Z,11.68
2023-10-26T12:28:35.378Z,11.70
2023-10-26T12:33:41.198Z,11.75
2023-10-26T12:38:45.342Z,11.80
2023-10-26T12:43:48.403Z,11.78
2023-10-26T12:48:51.405Z,11.76
2023-10-26T12:53:54.719Z,11.79
2023-10-26T12:58:58.876Z,11.85
2023-10-26T13:04:02.258Z,11.86
2023-10-26T13:09:05.685Z,11.90
2023-10-26T13:14:08.654Z,11.93
2023-10-26T13:19:11.740Z,11.90
2023-10-26T13:24:15.203Z,11.88
2023-10-26T13:29:18.361Z,11.89
2023-10-26T13:34:24.204Z,11.89
2023-10-26T13:39:27.245Z,11.90
2023-10-26T13:44:30.189Z,11.91
2023-10-26T13:49:33.192Z,11.87
2023-10-26T13:54:36.509Z,11.81
2023-10-26T13:59:40.610Z,11.76
2023-10-26T14:04:43.975Z,11.72
2023-10-26T14:09:47.966Z,11.69
2023-10-26T14:14:52.421Z,11.64
2023-10-26T14:19:55.678Z,11.62
2023-10-26T14:24:58.673Z,11.61
2023-10-26T14:30:01.829Z,11.56
2023-10-26T14:35:05.228Z,11.49
2023-10-26T14:40:09.516Z,11.46
2023-10-26T14:45:12.581Z,11.46
2023-10-26T14:50:15.605Z,11.51
2023-10-26T14:55:18.613Z,11.50
2023-10-26T15:00:21.583Z,11.49
2023-10-26T15:05:24.566Z,11.49
2023-10-26T15:10:30.834Z,11.48
2023-10-26T15:15:36.859Z,11.48
2023-10-26T15:20:40.885Z,11.46
2023-10-26T15:25:44.086Z,11.49
2023-10-26T15:30:47.240Z,11.50
2023-10-26T15:35:50.129Z,11.51
2023-10-26T15:41:03.824Z,11.48
2023-10-26T15:46:06.862Z,11.53
2023-10-26T15:51:10.018Z,11.52
2023-10-26T15:56:12.963Z,11.50
2023-10-26T16:01:17.017Z,11.45
2023-10-26T16:06:20.135Z,11.46
2023-10-26T16:11:23.175Z,11.46
2023-10-26T16:16:26.260Z,11.46
2023-10-26T16:21:29.353Z,11.48
2023-10-26T16:26:32.247Z,11.49
2023-10-26T16:31:36.177Z,11.49
2023-10-26T16:36:39.152Z,11.49
2023-10-26T16:41:43.218Z,11.47
2023-10-26T16:46:46.244Z,11.47
2023-10-26T16:51:49.368Z,11.48
2023-10-26T16:56:52.463Z,11.49
2023-10-26T17:01:55.398Z,11.46
2023-10-26T17:06:58.802Z,11.47
2023-10-26T17:12:01.941Z,11.44
2023-10-26T17:17:04.865Z,11.42
2023-10-26T17:22:07.829Z,11.41
2023-10-26T17:27:10.838Z,11.37
2023-10-26T17:32:14.654Z,11.38
2023-10-26T17:37:18.587Z,11.38
2023-10-26T17:42:21.584Z,11.34
2023-10-26T17:47:24.769Z,11.32
2023-10-26T17:52:27.760Z,11.31
2023-10-26T17:57:30.676Z,11.30
2023-10-26T18:02:33.613Z,11.30
2023-10-26T18:07:36.561Z,11.28
2023-10-26T18:12:39.564Z,11.23
2023-10-26T18:17:42.503Z,11.19
2023-10-26T18:22:46.234Z,11.15
2023-10-26T18:27:49.177Z,11.12
2023-10-26T18:32:52.177Z,11.11
2023-10-26T18:37:56.495Z,11.10
2023-10-26T18:42:59.429Z,11.08
2023-10-26T18:48:04.633Z,11.06
2023-10-26T18:53:09.255Z,11.07
2023-10-26T18:58:12.112Z,11.04
2023-10-26T19:03:16.996Z,11.02
2023-10-26T19:08:20.240Z,11.02
2023-10-26T19:13:23.361Z,11.02
2023-10-26T19:18:26.476Z,11.03
2023-10-26T19:23:29.499Z,11.04
2023-10-26T19:28:33.781Z,11.04
2023-10-26T19:33:36.678Z,11.06
2023-10-26T19:38:39.690Z,11.10
2023-10-26T19:43:42.793Z,11.13
2023-10-26T19:48:45.803Z,11.08
2023-10-26T19:53:48.864Z,11.04
2023-10-26T19:58:51.769Z,11.00
2023-10-26T20:03:54.692Z,11.00
2023-10-26T20:08:57.659Z,11.01
2023-10-26T20:14:03.903Z,11.03
2023-10-26T20:19:06.937Z,11.03
2023-10-26T20:24:10.278Z,11.02
2023-10-26T20:29:14.981Z,11.02
2023-10-26T20:34:21.069Z,11.04
2023-10-26T20:39:24.323Z,11.06
2023-10-26T20:44:27.335Z,11.04
2023-10-26T20:49:30.402Z,11.06
2023-10-26T20:54:33.334Z,11.05
2023-10-26T20:59:40.240Z,11.05
2023-10-26T21:04:43.254Z,11.07
2023-10-26T21:09:47.666Z,11.08
2023-10-26T21:14:54.744Z,11.08
2023-10-26T21:19:57.761Z,11.09
2023-10-26T21:25:02.111Z,11.10
2023-10-26T21:30:06.922Z,11.10
2023-10-26T21:35:10.394Z,11.10
2023-10-26T21:40:13.352Z,11.15
2023-10-26T21:45:16.409Z,11.13
2023-10-26T21:50:19.284Z,11.11
2023-10-26T21:55:22.198Z,11.08
2023-10-26T22:00:29.478Z,11.11
2023-10-26T22:05:32.751Z,11.13
2023-10-26T22:10:35.779Z,11.13
2023-10-26T22:15:38.769Z,11.13
2023-10-26T22:20:41.705Z,11.11
2023-10-26T22:25:44.615Z,11.09
2023-10-26T22:30:47.560Z,11.08
2023-10-26T22:35:50.586Z,11.06
2023-10-26T22:40:55.016Z,11.05
2023-10-26T22:45:58.133Z,11.02
2023-10-26T22:51:01.105Z,11.01
2023-10-26T22:56:04.525Z,11.01
2023-10-26T23:01:07.469Z,10.96
2023-10-26T23:06:10.388Z,10.97
2023-10-26T23:11:13.420Z,10.96
2023-10-26T23:16:17.134Z,10.94
2023-10-26T23:21:20.202Z,10.95
2023-10-26T23:26:23.206Z,10.98
2023-10-26T23:31:26.641Z,10.95
2023-10-26T23:36:29.600Z,10.97
2023-10-26T23:41:32.455Z,10.91
2023-10-26T23:46:35.384Z,10.80
2023-10-26T23:51:38.330Z,10.76
2023-10-26T23:56:41.201Z,10.72
